Sonic Adventure (DX): Overall Rankings

Records: Times | Rings | Scores | Races | Bosses | Freestyle
Leaders: Times | Rings | Scores | Races | Bosses | Freestyle | Overall
Rank Order Asc Player Percent Points Date
1 Sonicspeedruner 98.3% 285 01-17-17
2 Gamepro011 98.1% 305 01-17-17
3 DarkPolarNight 96.2% 637 01-17-17
4 Jawzun 93.4% 1094 01-17-17
5 Dashjump 92.1% 1327 01-17-17
6 DarkspinesSonic 90.2% 1643 01-17-17
7 Avento128bits 89.9% 1691 01-17-17
8 ike6252 89.8% 1708 01-17-17
9 F-Man 87.9% 2023 01-17-17
10 Coolfansonic 86.3% 2303 01-17-17
11 HyperSonic7701 84.7% 2573 01-17-17
12 yoshifan 82.8% 2880 01-17-17
13 TheRealShadnic 82.8% 2890 01-17-17
14 frankoredstrato 82.6% 2920 01-17-17
15 francisco 81.7% 3064 01-17-17
16 Marth 81.4% 3127 01-17-17
17 InferSaime 80.1% 3343 01-17-17
18 PfoSonic 79.6% 3416 01-17-17
19 Paragod 79.3% 3470 01-17-17
20 THC98 78.6% 3584 01-17-17
21 Stefan 76.0% 4032 01-17-17
22 RPGnutter 73.9% 4385 01-17-17
23 bertin 73.7% 4413 01-17-17
24 sonicam 71.6% 4764 01-17-17
25 drminus 70.5% 4958 01-17-17
26 xXMegaManXx 70.3% 4993 01-17-17
27 Combo 65.7% 5760 01-17-17
28 SkyLights 64.6% 5952 01-17-17
29 Diamond 62.5% 6309 01-17-17
30 Auriman1 60.5% 6630 01-17-17
31 OmegaDJ 60.4% 6647 01-17-17
32 GerbilSoft 60.4% 6648 01-17-17
33 magnum12 59.6% 6789 01-17-17
34 Thorn 57.5% 7139 01-17-17
35 P1 Pause 57.3% 7173 01-17-17
36 mike89 56.2% 7360 01-17-17
37 Groudon199 54.3% 7685 01-17-17
38 Dave Cramer 54.2% 7693 01-17-17
39 chainchumper 54.2% 7702 01-17-17
40 Parax 53.4% 7837 01-17-17
41 Shadow Jacky 53.2% 7863 01-17-17
42 Psymar 48.0% 8740 01-17-17
43 Arch 47.3% 8863 01-17-17
44 Chao_Fan 46.4% 9009 01-17-17
45 mauserman 45.4% 9178 01-17-17
46 Quartz 45.3% 9191 01-17-17
47 teamblackarms 44.5% 9326 01-17-17
48 Psyknux 43.4% 9517 01-17-17
49 James_Bertolli 43.3% 9524 01-17-17
50 NintenDan 43.1% 9571 01-17-17
51 Webber3000 42.6% 9651 01-17-17
52 Turbos 42.4% 9677 01-17-17
53 Cream147 42.0% 9746 01-17-17
54 Ring Rush 42.0% 9758 01-17-17
55 videogamemaster777 41.9% 9765 01-17-17
56 Siavash Tazari 41.7% 9806 01-17-17
57 Fr3nZy 41.5% 9835 01-17-17
58 buddychaos0415 41.2% 9886 01-17-17
59 SadisticMystic 40.4% 10026 01-17-17
60 eggFL 39.8% 10122 01-17-17
61 Redd 38.8% 10296 01-17-17
62 SB737 38.2% 10390 01-17-17
63 supersonic465 37.4% 10518 01-17-17
64 supersonicfan 37.1% 10574 01-17-17
65 FuzZerd 35.9% 10785 01-17-17
66 Aitamen 35.4% 10868 01-17-17
67 elecmouse101 35.1% 10916 01-17-17
68 danieldude 34.9% 10953 01-17-17
69 metanightmare22 33.8% 11126 01-17-17
70 Austinf 33.7% 11143 01-17-17
71 dabestgamer 33.4% 11191 01-17-17
72 Cyan Ryan 33.4% 11200 01-17-17
73 MiStEr_ShAoLiN 33.2% 11226 01-17-17
74 Andrea Ritsu 32.4% 11368 01-17-17
75 itsPersonnal 32.0% 11441 01-17-17
76 SilvertheAlmighty 31.2% 11566 01-17-17
77 Cybrax 31.1% 11580 01-17-17
78 VMU Player Banned 29.1% 11921 01-17-17
79 Staf 28.9% 11948 01-17-17
80 Nimrod 28.8% 11978 01-17-17
81 ethmar 28.8% 11979 01-17-17
82 The T 28.5% 12019 01-17-17
83 Omega Rafael Santos 28.5% 12030 01-17-17
84 EngiNerd 28.3% 12052 01-17-17
85 lordmetalsonic 27.7% 12150 01-17-17
86 welldooder64 27.1% 12254 01-17-17
87 Hipertails12 27.1% 12257 01-17-17
88 GreatStar 26.8% 12304 01-17-17
89 The Great Lord Mick 26.8% 12308 01-17-17
90 Sondow 26.7% 12317 01-17-17
91 LinksDarkArrows 26.6% 12344 01-17-17
92 Mastakirby 26.5% 12364 01-17-17
93 Skylace 25.5% 12526 01-17-17
94 a_moustache 24.4% 12707 01-17-17
95 Rolken 24.1% 12756 01-17-17
96 Kogen Player Banned 22.4% 13052 01-17-17
97 Spinballwizard 22.3% 13072 01-17-17
98 Xia 22.2% 13074 01-17-17
99 Twilisailor 21.9% 13139 01-17-17
100 f0rever_zer0 21.8% 13148 01-17-17
101 Cutiefox 21.6% 13179 01-17-17
102 Don 21.5% 13201 01-17-17
103 Game_Complete 21.4% 13214 01-17-17
104 Miles9999 21.4% 13223 01-17-17
105 andres430 21.0% 13284 01-17-17
106 Cruizer 20.7% 13330 01-17-17
107 iSonicKid2K 20.7% 13341 01-17-17
108 SADXTryHard 20.3% 13407 01-17-17
109 GarnetPrincess 19.9% 13461 01-17-17
110 AxlThunder 19.1% 13600 01-17-17
111 knuckles_sonic8 18.8% 13656 01-17-17
112 KinkyCadence 18.3% 13731 01-17-17
112 The Knuckles Chao 18.3% 13731 01-17-17
114 Team_Yoshi 18.0% 13791 01-17-17
115 Termon 17.9% 13801 01-17-17
116 LittleBigness 17.9% 13808 01-17-17
117 SonicWinDX 17.7% 13831 01-17-17
118 FoxBoy 17.7% 13841 01-17-17
119 Drakodan 16.9% 13970 01-17-17
120 Sonic Singularity 15.9% 14134 01-17-17
121 Pokemonmaster888 15.8% 14163 01-17-17
122 BigAL49 14.8% 14326 01-17-17
123 MPit08 14.7% 14349 01-17-17
124 SilverSonic 14.6% 14365 01-17-17
125 WeegeeZV 14.3% 14409 01-17-17
126 koinu93 14.2% 14435 01-17-17
127 Mo Player Banned 14.1% 14438 01-17-17
128 HyperSonic64 13.8% 14493 01-17-17
129 Cod4Scopes 13.8% 14500 01-17-17
130 booo95 13.7% 14520 01-17-17
131 Jerzia 13.4% 14555 01-17-17
132 Chawkk 13.3% 14572 01-17-17
133 paulie9990 13.3% 14576 01-17-17
134 SuperSonic101 13.1% 14617 01-17-17
135 Hunters13 13.1% 14620 01-17-17
136 Maxinfamily 13.0% 14634 01-17-17
137 Kanimayo_Jp 12.7% 14686 01-17-17
137 LilZero 12.7% 14686 01-17-17
139 BrokenArthritis 12.5% 14708 01-17-17
140 PsyBorg 12.4% 14730 01-17-17
141 Flying Fox 12.4% 14735 01-17-17
142 Therio 12.1% 14780 01-17-17
143 sonicspeed 12.0% 14798 01-17-17
144 douglas 11.9% 14815 01-17-17
145 Matt_TY 11.5% 14886 01-17-17
146 thewaytodawnnn 11.4% 14895 01-17-17
147 Cooljay 11.0% 14974 01-17-17
148 SuperBlitzCraig 10.8% 15001 01-17-17
149 joecoolgames 10.7% 15011 01-17-17
149 SeaWolf 10.7% 15011 01-17-17
151 videogamer1014 10.5% 15051 01-17-17
152 AC-Tygo 10.3% 15088 01-17-17
153 welshmoose05 10.2% 15101 01-17-17
154 OddCook 10.0% 15134 01-17-17
155 crazy1993 9.9% 15145 01-17-17
156 TFEC Headshot 9.9% 15152 01-17-17
157 Mcshuggets 9.7% 15186 01-17-17
158 niscool 9.5% 15225 01-17-17
159 N 9.4% 15235 01-17-17
160 imazor017 9.3% 15247 01-17-17
161 nuckrieg 9.3% 15261 01-17-17
162 Mariobutch 9.2% 15267 01-17-17
163 SonicAD 9.2% 15268 01-17-17
164 SirTobbii 9.1% 15282 01-17-17
165 Shadowthegreat 9.1% 15287 01-17-17
166 superjupi 9.1% 15292 01-17-17
167 Powerjohn25 8.8% 15345 01-17-17
167 sonamyfan666 8.8% 15345 01-17-17
169 iarebored 8.6% 15363 01-17-17
170 SonicKnuckles 8.6% 15371 01-17-17
171 SaviourDC 8.6% 15376 01-17-17
172 Werey 8.3% 15424 01-17-17
173 adf 8.3% 15429 01-17-17
174 Megaman EXE565 8.0% 15464 01-17-17
175 ArcticDragon 7.6% 15536 01-17-17
176 Platformer 7.6% 15540 01-17-17
177 timpkmn89 7.5% 15554 01-17-17
178 FocusSight64 7.3% 15582 01-17-17
178 Swift Hobo 7.3% 15582 01-17-17
180 wheatrich 7.3% 15584 01-17-17
181 Rickyman48 7.1% 15615 01-17-17
182 KitsuneYamaro 7.1% 15629 01-17-17
183 Triseena 6.9% 15661 01-17-17
184 SonataSpinDash 6.7% 15695 01-17-17
185 dShadow 6.5% 15717 01-17-17
186 slade23 6.5% 15718 01-17-17
187 CyberShadow 6.5% 15719 01-17-17
188 Starlight Sable 6.5% 15723 01-17-17
189 Destroyer121121 6.5% 15729 01-17-17
190 IsisDazs 6.3% 15751 01-17-17
191 BlankTH 6.2% 15775 01-17-17
192 Monkeh 6.0% 15807 01-17-17
193 Badlex727 6.0% 15813 01-17-17
194 chaos shadow 5.9% 15829 01-17-17
195 Richied 5.9% 15831 01-17-17
196 SonicU260 5.9% 15833 01-17-17
197 DaDude 5.7% 15852 01-17-17
198 Vicklaw 5.7% 15865 01-17-17
199 Zip 5.6% 15869 01-17-17
200 sonicd5 5.6% 15880 01-17-17
201 ALundstrom10 5.3% 15934 01-17-17
202 tal39h 5.2% 15941 01-17-17
203 VeritasDL 5.2% 15948 01-17-17
204 Kirbymon30 5.1% 15960 01-17-17
205 soniccoloursunleashed 5.0% 15982 01-17-17
206 Drflash55 4.9% 15988 01-17-17
207 Bass 4.8% 16003 01-17-17
208 neaolas 4.7% 16020 01-17-17
209 Yish 4.7% 16030 01-17-17
210 zapp 4.7% 16035 01-17-17
211 UninspiredUsername 4.6% 16043 01-17-17
212 superiorsonic 4.6% 16044 01-17-17
213 Sonicsuperstar1 4.6% 16051 01-17-17
214 gamefreak1292 4.5% 16062 01-17-17
215 Chaos_Overlord 4.2% 16111 01-17-17
216 TakaRikka 4.1% 16129 01-17-17
217 Valfore 4.0% 16143 01-17-17
218 ShinigamiMachine 3.8% 16175 01-17-17
219 Regano1000 3.8% 16178 01-17-17
220 MK 3.6% 16204 01-17-17
221 Ace747 3.6% 16208 01-17-17
222 Illidan 3.2% 16282 01-17-17
223 HHNNBBHHN 3.2% 16284 01-17-17
224 Brian_pso 3.1% 16292 01-17-17
225 Venick409 3.1% 16293 01-17-17
226 nman36 3.1% 16295 01-17-17
226 Sithwarrior26 3.1% 16295 01-17-17
228 Egor305 3.0% 16317 01-17-17
229 ingx24 3.0% 16321 01-17-17
230 SkyBon 2.9% 16323 01-17-17
231 TheChaosEmeraIds 2.9% 16324 01-17-17
232 Nickson98 2.9% 16329 01-17-17
233 dekki1234 2.9% 16333 01-17-17
234 Fozer 2.8% 16342 01-17-17
235 Colomb_30 2.8% 16350 01-17-17
236 FSSRandomvids 2.8% 16352 01-17-17
237 Aiko 2.7% 16364 01-17-17
238 sonic29887 2.7% 16371 01-17-17
238 TheUltraBlur 2.7% 16371 01-17-17
240 1stKirbyever 2.6% 16378 01-17-17
241 TimTH 2.6% 16388 01-17-17
242 Th4tN1nj4Turtl3 2.4% 16415 01-17-17
243 Cort_pso 2.3% 16426 01-17-17
244 ieatatsonic 2.3% 16431 01-17-17
245 Doom-9 2.3% 16432 01-17-17
246 Mariosonic15 2.3% 16434 01-17-17
247 MStitomix 2.1% 16457 01-17-17
248 HermitHelmet 2.1% 16458 01-17-17
249 Artie 2.1% 16470 01-17-17
250 Got4n 2.0% 16474 01-17-17
251 SuperSonic71087 2.0% 16477 01-17-17
252 Jose_15 2.0% 16486 01-17-17
253 Questionguy555 1.9% 16490 01-17-17
254 SuperSonicfan9595 1.9% 16504 01-17-17
255 djmat 1.8% 16507 01-17-17
256 sonicandamy Player Banned 1.7% 16526 01-17-17
257 Heroes_Hater 1.7% 16532 01-17-17
258 LancexExWx 1.7% 16535 01-17-17
258 Paixii 1.7% 16535 01-17-17
260 son1cgu1tar 1.7% 16539 01-17-17
261 BallzeH 1.6% 16550 01-17-17
262 Mankster101 1.6% 16555 01-17-17
263 BecauseWarAnvil 1.5% 16558 01-17-17
264 Jamixesa 1.5% 16561 01-17-17
265 Crydio 1.5% 16570 01-17-17
266 Shanekilz 1.4% 16576 01-17-17
266 SpiritDragon1995 1.4% 16576 01-17-17
268 ReuelBrony 1.4% 16583 01-17-17
269 MarewBFN 1.4% 16588 01-17-17
270 stanski 1.3% 16591 01-17-17
271 Sonique Hedgehog 1.3% 16598 01-17-17
272 p0ker 1.3% 16605 01-17-17
273 Blue Infamy 1.2% 16608 01-17-17
274 ErrortheCucco 1.2% 16619 01-17-17
275 Arthas 1.2% 16622 01-17-17
275 Rikum22 1.2% 16622 01-17-17
277 sonic1001 1.1% 16630 01-17-17
278 WingedInsignia 1.1% 16635 01-17-17
279 AJSIV 1.1% 16636 01-17-17
280 syco1098 1.1% 16637 01-17-17
281 Sonic the Hedgehod16 1.0% 16641 01-17-17
282 Calfd 1.0% 16649 01-17-17
282 sonicfan9 1.0% 16649 01-17-17
284 BlackArmsShadow 0.9% 16660 01-17-17
285 themachoman202 0.9% 16661 01-17-17
286 darkstarblaze 0.9% 16668 01-17-17
286 shadowblast63 Player Banned 0.9% 16668 01-17-17
288 Greham Adelphis 0.9% 16671 01-17-17
288 Mr. Jones 0.9% 16671 01-17-17
290 Fivavoa 0.9% 16672 01-17-17
291 MastaToken 0.9% 16673 01-17-17
292 arcfx1985 0.9% 16674 01-17-17
293 Ben1502 0.8% 16675 01-17-17
294 ptorflaxendrosis 0.8% 16677 01-17-17
294 TommyeAsY 0.8% 16677 01-17-17
296 FlandreScarlet9999vr 0.8% 16682 01-17-17
297 Gvozdevik 0.8% 16683 01-17-17
298 Zeldocto 0.8% 16684 01-17-17
299 Knuckles 0.8% 16685 01-17-17
300 BeeAwwb 0.8% 16689 01-17-17
301 KaM Mark MaK 0.8% 16690 01-17-17
302 ShadouZaHejjihoggu 0.7% 16697 01-17-17
303 Sonic62 0.7% 16702 01-17-17
304 Sonic The Star 0.7% 16703 01-17-17
305 darkersupershadic 0.7% 16704 01-17-17
306 Sarger001 0.7% 16706 01-17-17
307 dragondragon18 0.7% 16707 01-17-17
308 Shadygamerfreak 0.6% 16709 01-17-17
309 Grady219 0.6% 16711 01-17-17
310 Sogeking 0.6% 16712 01-17-17
310 SonicK100 0.6% 16712 01-17-17
312 Jawaah 0.6% 16717 01-17-17
313 Antek 0.6% 16720 01-17-17
314 Klaus 0.6% 16722 01-17-17
315 SilverK 0.6% 16723 01-17-17
316 BioShadow 0.6% 16724 01-17-17
317 SpinDashMaster 0.5% 16730 01-17-17
318 Videogamer123 0.5% 16731 01-17-17
319 oTaiIilLsS 0.4% 16746 01-17-17
320 isaihtb11 0.4% 16748 01-17-17
321 OhNoes! 0.4% 16750 01-17-17
321 zaktu40 0.4% 16750 01-17-17
323 gaara1234 0.4% 16753 01-17-17
323 S-MS32X-S 0.4% 16753 01-17-17
325 Mad Andy 0.4% 16754 01-17-17
326 gamed00d 0.4% 16757 01-17-17
327 Mister_Slick 0.3% 16765 01-17-17
328 Sonic06Fan 0.3% 16767 01-17-17
329 Rush Hero 0.3% 16769 01-17-17
330 SonicMega167 0.3% 16774 01-17-17
331 Iwannabelink 0.2% 16777 01-17-17
332 sonknuck23 0.2% 16779 01-17-17
333 DanielTheFalcon 0.2% 16788 01-17-17
333 gamer1245 0.2% 16788 01-17-17
335 Burningskull123 0.1% 16793 01-17-17
336 Sonicontherun 0.1% 16804 01-17-17
337 Lil_Dude 0.1% 16809 01-17-17
338 antiwwe 0.0% 16810 01-17-17
339 Genuine Hedgehog 0.0% 16814 01-17-17
340 Cbwade15 0.0% 16816 01-17-17
341 Tyrouble 0.0% 16819 01-17-17
342 MegabombBlade 0.0% 16826 01-17-17
342 neji_hyuuga 0.0% 16826 01-17-17
342 Over 0.0% 16826 01-17-17
342 sdj6707 Player Banned 0.0% 16826 01-17-17
342 Tran Sonic Fan Player Banned 0.0% 16826 01-17-17

This page is using the New Data Table System. [FUTURE]

Game ID: 3 | Category ID: 10
Hits: 68,360 | Hits This Month: 118 | DB Calls: 21 | Mem Usage: 5.47 MB | Time: 0.13s | Printable

The Sonic Center v3.9
Copyright 2003-2011 by The Sonic Center Team.